Bridgton, Maine
Current Conditions -  °F | °C
As of 12:54 PM on Friday 19 Dec 2014 (Local Time) from KIZG Reporting Station
Clear Clear  
Wind Chill: 33°   Ceiling: Unl
Heat Index: 37°   Visibility: 10mi
Dew Point: 21°   Wind: 5mph
Humidity: 52%   Direction: NA
Pressure: 29.91"   Gusts: NA
Location:  44.06°N, 70.7°W
Report Text: KIZG 191754Z AUTO VRB04KT 10SM CLR 03/M06 A2991 RMK AO2 SLP134 I6000 T00281061 10028 21072 55004
Loading
Personal Weather Stations






























Interactive Weather Map New forecast layout! Learn more

10-Day Weather Forecast

Advertisements
Track Severe Weather on mobile